createdAt,value
2022-07-29T00:02:27.241Z,11.13
2022-07-29T00:04:54.361Z,10.91
2022-07-29T00:07:21.249Z,10.82
2022-07-29T00:09:51.389Z,10.72
2022-07-29T00:12:26.550Z,10.75
2022-07-29T00:14:57.223Z,10.68
2022-07-29T00:17:27.021Z,10.67
2022-07-29T00:19:54.179Z,10.78
2022-07-29T00:22:21.556Z,10.91
2022-07-29T00:24:50.200Z,10.73
2022-07-29T00:27:18.070Z,10.56
2022-07-29T00:29:44.744Z,10.46
2022-07-29T00:32:11.505Z,10.39
2022-07-29T00:34:56.673Z,10.41
2022-07-29T00:37:23.334Z,10.49
2022-07-29T00:39:50.192Z,10.43
2022-07-29T00:42:17.555Z,10.31
2022-07-29T00:44:44.765Z,10.28
2022-07-29T00:47:13.081Z,10.29
2022-07-29T00:49:42.786Z,10.22
2022-07-29T00:52:11.679Z,10.19
2022-07-29T00:54:43.979Z,10.16
2022-07-29T00:57:12.124Z,10.28
2022-07-29T00:59:38.771Z,10.25
2022-07-29T01:02:05.656Z,10.21
2022-07-29T01:04:32.986Z,10.15
2022-07-29T01:07:01.969Z,10.15
2022-07-29T01:09:42.915Z,10.31
2022-07-29T01:12:18.051Z,10.37
2022-07-29T01:14:45.896Z,10.29
2022-07-29T01:17:23.875Z,10.18
2022-07-29T01:20:31.660Z,10.10
2022-07-29T01:23:04.512Z,9.93
2022-07-29T01:26:01.574Z,9.91
2022-07-29T01:29:00.700Z,10.07
2022-07-29T01:32:27.328Z,10.19
2022-07-29T01:35:07.308Z,10.11
2022-07-29T01:37:43.575Z,10.19
2022-07-29T01:40:28.390Z,10.17
2022-07-29T01:42:58.285Z,10.02
2022-07-29T01:45:40.036Z,9.99
2022-07-29T01:48:36.704Z,9.95
2022-07-29T01:51:09.153Z,9.84
2022-07-29T01:53:43.673Z,9.94
2022-07-29T01:56:12.759Z,9.87
2022-07-29T01:58:42.680Z,9.88
2022-07-29T02:01:12.085Z,9.80
2022-07-29T02:03:40.241Z,9.79
2022-07-29T02:06:09.988Z,9.69
2022-07-29T02:08:39.644Z,9.64
2022-07-29T02:11:08.446Z,9.71
2022-07-29T02:13:37.924Z,9.65
2022-07-29T02:16:08.508Z,9.63
2022-07-29T02:18:38.686Z,9.64
2022-07-29T02:21:05.826Z,9.67
2022-07-29T02:23:50.362Z,9.62
2022-07-29T02:26:20.110Z,9.63
2022-07-29T02:28:47.707Z,9.76
2022-07-29T02:31:16.372Z,9.71
2022-07-29T02:33:44.825Z,9.71
2022-07-29T02:36:12.432Z,9.64
2022-07-29T02:38:56.499Z,9.54
2022-07-29T02:41:36.391Z,9.46
2022-07-29T02:44:09.806Z,9.49
2022-07-29T02:46:38.861Z,9.59
2022-07-29T02:49:14.345Z,9.74
2022-07-29T02:51:47.843Z,9.71
2022-07-29T02:54:46.941Z,9.53
2022-07-29T02:57:23.812Z,9.49
2022-07-29T02:59:53.800Z,9.41
2022-07-29T03:02:22.533Z,9.36
2022-07-29T03:04:51.124Z,9.32
2022-07-29T03:07:21.272Z,9.30
2022-07-29T03:09:49.138Z,9.34
2022-07-29T03:12:17.026Z,9.36
2022-07-29T03:14:44.905Z,9.33
2022-07-29T03:17:12.452Z,9.34
2022-07-29T03:19:39.941Z,9.46
2022-07-29T03:22:07.119Z,9.44
2022-07-29T03:24:37.042Z,9.47
2022-07-29T03:27:05.078Z,9.51
2022-07-29T03:29:33.462Z,9.60
2022-07-29T03:32:07.533Z,9.59
2022-07-29T03:34:35.748Z,9.58
2022-07-29T03:37:02.507Z,9.58
2022-07-29T03:39:34.087Z,9.61
2022-07-29T03:42:02.083Z,9.77
2022-07-29T03:44:30.203Z,9.83
2022-07-29T03:46:58.970Z,9.84
2022-07-29T03:49:27.706Z,9.95
2022-07-29T03:51:55.420Z,10.01
2022-07-29T03:54:22.405Z,10.21
2022-07-29T03:56:53.207Z,10.34
2022-07-29T03:59:22.336Z,10.45
2022-07-29T04:01:49.661Z,10.51
2022-07-29T04:04:17.157Z,10.53
2022-07-29T04:06:45.968Z,10.57
2022-07-29T04:09:15.661Z,10.72
2022-07-29T04:12:01.756Z,10.93
2022-07-29T04:14:30.364Z,11.11
2022-07-29T04:16:57.076Z,11.20
2022-07-29T04:19:23.749Z,11.28
2022-07-29T04:21:50.815Z,11.37
2022-07-29T04:24:18.353Z,11.37
2022-07-29T04:26:47.021Z,11.47
2022-07-29T04:29:15.506Z,11.63
2022-07-29T04:31:43.153Z,11.87
2022-07-29T04:34:10.713Z,11.74
2022-07-29T04:36:37.427Z,11.73
2022-07-29T04:39:05.128Z,11.86
2022-07-29T04:41:33.010Z,11.93
2022-07-29T04:44:02.048Z,12.08
2022-07-29T04:46:29.128Z,12.15
2022-07-29T04:48:56.109Z,12.34
2022-07-29T04:51:22.977Z,12.47
2022-07-29T04:53:49.673Z,12.57
2022-07-29T04:56:16.392Z,12.46
2022-07-29T04:58:43.059Z,12.52
2022-07-29T05:01:10.245Z,12.52
2022-07-29T05:03:37.016Z,12.49
2022-07-29T05:06:03.852Z,12.66
2022-07-29T05:08:30.828Z,12.82
2022-07-29T05:10:57.658Z,13.02
2022-07-29T05:13:25.197Z,13.11
2022-07-29T05:15:51.910Z,13.26
2022-07-29T05:18:18.633Z,13.42
2022-07-29T05:20:45.339Z,13.68
2022-07-29T05:23:13.884Z,13.81
2022-07-29T05:25:44.213Z,14.12
2022-07-29T05:28:12.434Z,14.31
2022-07-29T05:30:39.272Z,14.52
2022-07-29T05:33:06.022Z,14.85
2022-07-29T05:35:32.815Z,15.10
2022-07-29T05:37:59.483Z,15.13
2022-07-29T05:40:26.484Z,15.37
2022-07-29T05:42:53.394Z,15.18
2022-07-29T05:45:20.152Z,15.40
2022-07-29T05:47:46.965Z,15.31
2022-07-29T05:50:14.021Z,15.61
2022-07-29T05:52:40.824Z,15.81
2022-07-29T05:55:08.018Z,16.07
2022-07-29T05:57:34.817Z,16.29
2022-07-29T06:00:01.807Z,16.56
2022-07-29T06:02:28.548Z,16.76
2022-07-29T06:04:56.377Z,16.94
2022-07-29T06:07:23.359Z,17.06
2022-07-29T06:09:50.149Z,17.18
2022-07-29T06:12:16.883Z,17.48
2022-07-29T06:14:43.618Z,17.40
2022-07-29T06:17:12.551Z,17.35
2022-07-29T06:19:39.427Z,17.40
2022-07-29T06:22:06.327Z,17.47
2022-07-29T06:24:33.158Z,17.86
2022-07-29T06:26:59.837Z,17.72
2022-07-29T06:29:27.068Z,17.91
2022-07-29T06:31:53.836Z,17.55
2022-07-29T06:34:20.785Z,17.84
2022-07-29T06:36:47.744Z,17.70
2022-07-29T06:39:16.096Z,18.22
2022-07-29T06:41:43.469Z,20.56
2022-07-29T06:44:12.666Z,21.96
2022-07-29T06:46:39.728Z,22.74
2022-07-29T06:49:06.676Z,22.64
2022-07-29T06:51:33.929Z,22.82
2022-07-29T06:54:02.747Z,22.36
2022-07-29T06:56:39.396Z,21.45
2022-07-29T06:59:09.092Z,21.30
2022-07-29T07:01:41.350Z,22.71
2022-07-29T07:04:09.843Z,23.25
2022-07-29T07:06:37.121Z,22.99
2022-07-29T07:09:04.803Z,22.90
2022-07-29T07:11:31.938Z,22.34
2022-07-29T07:14:02.944Z,21.54
2022-07-29T07:16:31.906Z,21.34
2022-07-29T07:18:58.954Z,21.93
2022-07-29T07:21:25.645Z,21.45
2022-07-29T07:23:52.351Z,21.94
2022-07-29T07:26:19.099Z,20.97
2022-07-29T07:28:45.975Z,20.83
2022-07-29T07:31:13.071Z,20.61
2022-07-29T07:33:39.899Z,20.53
2022-07-29T07:36:06.735Z,20.53
2022-07-29T07:38:33.543Z,20.75
2022-07-29T07:41:00.478Z,20.74
2022-07-29T07:43:27.328Z,20.46
2022-07-29T07:45:54.111Z,20.47
2022-07-29T07:48:21.531Z,20.22
2022-07-29T07:50:50.319Z,20.25
2022-07-29T07:53:17.305Z,20.36
2022-07-29T07:56:09.335Z,20.80
2022-07-29T07:58:31.161Z,20.96
2022-07-29T08:00:57.988Z,21.07
2022-07-29T08:03:24.903Z,21.21
2022-07-29T08:05:52.869Z,21.47
2022-07-29T08:08:19.770Z,21.54
2022-07-29T08:11:02.215Z,21.37
2022-07-29T08:13:32.914Z,21.91
2022-07-29T08:16:12.362Z,21.62
2022-07-29T08:18:41.178Z,21.51
2022-07-29T08:21:08.329Z,21.19
2022-07-29T08:23:50.387Z,21.15
2022-07-29T08:26:21.883Z,20.79
2022-07-29T08:28:51.281Z,20.76
2022-07-29T08:31:18.912Z,20.77
2022-07-29T08:33:45.880Z,20.77
2022-07-29T08:36:14.056Z,20.66
2022-07-29T08:38:40.938Z,21.02
2022-07-29T08:41:07.669Z,20.86
2022-07-29T08:43:38.253Z,20.69
2022-07-29T08:46:05.251Z,20.94
2022-07-29T08:48:32.272Z,20.75
2022-07-29T08:50:59.778Z,21.24
2022-07-29T08:53:28.207Z,21.40
2022-07-29T08:55:56.406Z,21.70
2022-07-29T08:58:25.239Z,22.03
2022-07-29T09:00:55.602Z,22.13
2022-07-29T09:03:25.965Z,22.32
2022-07-29T09:05:52.985Z,22.58
2022-07-29T09:08:21.202Z,22.70
2022-07-29T09:10:48.893Z,22.83
2022-07-29T09:13:15.821Z,23.04
2022-07-29T09:15:42.599Z,22.80
2022-07-29T09:18:20.428Z,22.83
2022-07-29T09:21:31.566Z,22.49
2022-07-29T09:24:01.210Z,22.32
2022-07-29T09:26:36.729Z,22.71
2022-07-29T09:29:14.369Z,22.92
2022-07-29T09:31:46.739Z,22.65
2022-07-29T09:34:16.614Z,22.57
2022-07-29T09:36:45.304Z,22.47
2022-07-29T09:39:12.738Z,22.58
2022-07-29T09:41:50.371Z,22.71
2022-07-29T09:44:17.666Z,22.58
2022-07-29T09:47:14.065Z,22.80
2022-07-29T09:49:59.371Z,22.86
2022-07-29T09:52:30.655Z,22.93
2022-07-29T09:55:18.463Z,23.08
2022-07-29T09:57:47.922Z,23.27
2022-07-29T10:00:20.480Z,23.41
2022-07-29T10:02:48.591Z,23.98
2022-07-29T10:05:25.658Z,23.80
2022-07-29T10:07:57.434Z,23.67
2022-07-29T10:10:30.549Z,23.50
2022-07-29T10:13:03.019Z,23.35
2022-07-29T10:15:44.789Z,23.46
2022-07-29T10:18:13.421Z,23.63
2022-07-29T10:20:40.805Z,23.42
2022-07-29T10:23:07.589Z,23.18
2022-07-29T10:25:34.418Z,23.35
2022-07-29T10:28:01.280Z,23.60
2022-07-29T10:30:28.643Z,23.61
2022-07-29T10:33:18.205Z,23.42
2022-07-29T10:36:22.527Z,23.32
2022-07-29T10:39:06.469Z,23.75
2022-07-29T10:41:59.100Z,24.00
2022-07-29T10:44:28.468Z,24.76
2022-07-29T10:46:55.753Z,25.15
2022-07-29T10:49:27.104Z,24.97
2022-07-29T10:52:02.767Z,24.60
2022-07-29T10:54:48.337Z,25.15
2022-07-29T10:57:21.391Z,24.71
2022-07-29T11:00:11.133Z,24.50
2022-07-29T11:02:41.025Z,24.33
2022-07-29T11:05:14.911Z,24.10
2022-07-29T11:08:20.458Z,24.34
2022-07-29T11:10:54.255Z,24.26
2022-07-29T11:13:53.307Z,24.50
2022-07-29T11:16:24.999Z,24.73
2022-07-29T11:19:14.256Z,25.01
2022-07-29T11:22:00.349Z,24.38
2022-07-29T11:24:31.798Z,24.66
2022-07-29T11:27:13.451Z,24.52
2022-07-29T11:29:50.787Z,24.24
2022-07-29T11:35:27.687Z,23.84
2022-07-29T11:38:23.216Z,23.53
2022-07-29T11:41:25.459Z,23.77
2022-07-29T11:44:00.163Z,23.81
2022-07-29T11:46:48.015Z,23.91
2022-07-29T11:49:22.038Z,23.95
2022-07-29T11:52:02.403Z,24.67
2022-07-29T11:54:58.365Z,24.61
2022-07-29T11:57:36.643Z,24.59
2022-07-29T12:00:38.871Z,24.31
2022-07-29T12:03:08.415Z,24.83
2022-07-29T12:05:48.386Z,24.75
2022-07-29T12:07:01.471Z,24.12
2022-07-29T12:08:23.284Z,24.57
2022-07-29T12:10:51.883Z,24.69
2022-07-29T12:13:20.930Z,24.57
2022-07-29T12:16:00.183Z,24.11
2022-07-29T12:18:27.859Z,23.77
2022-07-29T12:21:04.842Z,23.79
2022-07-29T12:23:34.670Z,23.80
2022-07-29T12:26:07.721Z,23.70
2022-07-29T12:28:39.717Z,23.51
2022-07-29T12:31:08.308Z,23.49
2022-07-29T12:33:36.180Z,24.13
2022-07-29T12:36:10.468Z,24.48
2022-07-29T12:38:42.067Z,24.59
2022-07-29T12:41:09.045Z,24.42
2022-07-29T12:43:36.007Z,24.48
2022-07-29T12:46:23.017Z,24.12
2022-07-29T12:48:57.707Z,24.08
2022-07-29T12:51:33.248Z,24.38
2022-07-29T12:54:04.799Z,24.08
2022-07-29T12:56:46.853Z,24.10
2022-07-29T12:59:23.505Z,23.96
2022-07-29T13:01:52.765Z,24.16
2022-07-29T13:04:30.597Z,24.09
2022-07-29T13:07:04.663Z,23.94
2022-07-29T13:09:49.755Z,23.71
2022-07-29T13:12:16.991Z,23.93
2022-07-29T13:14:46.554Z,23.79
2022-07-29T13:17:16.762Z,24.05
2022-07-29T13:19:44.610Z,24.09
2022-07-29T13:22:13.767Z,24.18
2022-07-29T13:24:50.929Z,24.02
2022-07-29T13:27:19.099Z,23.86
2022-07-29T13:29:46.233Z,23.92
2022-07-29T13:32:14.249Z,24.13
2022-07-29T13:34:41.799Z,24.38
2022-07-29T13:37:08.570Z,23.79
2022-07-29T13:39:35.548Z,23.92
2022-07-29T13:42:02.425Z,24.07
2022-07-29T13:44:29.173Z,23.76
2022-07-29T13:46:56.824Z,23.22
2022-07-29T13:49:23.872Z,23.29
2022-07-29T13:51:51.201Z,23.62
2022-07-29T13:54:18.005Z,23.20
2022-07-29T13:56:44.761Z,23.69
2022-07-29T13:59:13.584Z,23.65
2022-07-29T14:01:42.674Z,23.60
2022-07-29T14:04:11.287Z,23.22
2022-07-29T14:06:40.517Z,23.28
2022-07-29T14:09:07.466Z,23.57
2022-07-29T14:11:34.379Z,23.71
2022-07-29T14:14:01.191Z,23.61
2022-07-29T14:16:28.042Z,23.55
2022-07-29T14:18:54.877Z,23.26
2022-07-29T14:21:21.697Z,23.19
2022-07-29T14:23:48.769Z,23.21
2022-07-29T14:26:21.702Z,23.36
2022-07-29T14:28:51.225Z,23.24
2022-07-29T14:31:18.130Z,23.45
2022-07-29T14:33:46.217Z,23.69
2022-07-29T14:36:16.465Z,23.42
2022-07-29T14:38:43.487Z,23.53
2022-07-29T14:41:10.306Z,23.58
2022-07-29T14:43:37.060Z,23.71
2022-07-29T14:46:08.215Z,23.52
2022-07-29T14:48:36.019Z,23.49
2022-07-29T14:51:04.949Z,23.66
2022-07-29T14:53:32.062Z,23.79
2022-07-29T14:56:10.312Z,23.80
2022-07-29T14:58:51.764Z,23.79
2022-07-29T15:01:19.180Z,23.72
2022-07-29T15:03:46.769Z,23.64
2022-07-29T15:06:13.617Z,23.79
2022-07-29T15:08:40.422Z,23.82
2022-07-29T15:11:07.244Z,23.59
2022-07-29T15:13:34.794Z,23.56
2022-07-29T15:16:01.929Z,23.75
2022-07-29T15:18:28.829Z,23.55
2022-07-29T15:20:55.563Z,23.61
2022-07-29T15:23:22.320Z,23.88
2022-07-29T15:25:49.362Z,23.74
2022-07-29T15:28:16.285Z,23.54
2022-07-29T15:30:43.532Z,23.38
2022-07-29T15:33:10.561Z,23.22
2022-07-29T15:35:40.231Z,23.03
2022-07-29T15:38:08.202Z,22.94
2022-07-29T15:40:35.137Z,22.79
2022-07-29T15:43:06.927Z,22.83
2022-07-29T15:45:40.187Z,22.76
2022-07-29T15:48:09.140Z,22.77
2022-07-29T15:50:36.277Z,23.03
2022-07-29T15:53:03.736Z,23.02
2022-07-29T15:55:30.544Z,22.99
2022-07-29T15:58:00.624Z,23.28
2022-07-29T16:00:27.774Z,23.28
2022-07-29T16:02:54.519Z,23.30
2022-07-29T16:05:21.284Z,23.61
2022-07-29T16:07:48.228Z,23.78
2022-07-29T16:10:16.009Z,23.84
2022-07-29T16:12:42.837Z,23.88
2022-07-29T16:15:10.832Z,23.90
2022-07-29T16:17:38.981Z,23.72
2022-07-29T16:20:06.622Z,23.77
2022-07-29T16:22:33.417Z,23.71
2022-07-29T16:25:00.123Z,23.52
2022-07-29T16:27:35.378Z,23.40
2022-07-29T16:30:05.778Z,23.33
2022-07-29T16:32:32.720Z,23.24
2022-07-29T16:35:02.133Z,23.28
2022-07-29T16:37:33.589Z,23.17
2022-07-29T16:40:00.430Z,23.13
2022-07-29T16:42:45.413Z,23.10
2022-07-29T16:45:13.524Z,23.07
2022-07-29T16:47:40.727Z,23.27
2022-07-29T16:50:08.730Z,23.21
2022-07-29T16:52:36.048Z,23.00
2022-07-29T16:55:02.742Z,22.85
2022-07-29T16:57:29.526Z,22.85
2022-07-29T16:59:56.303Z,22.74
2022-07-29T17:02:23.123Z,22.75
2022-07-29T17:04:49.995Z,23.00
2022-07-29T17:07:17.010Z,22.93
2022-07-29T17:09:43.638Z,22.79
2022-07-29T17:12:10.292Z,22.69
2022-07-29T17:14:37.016Z,22.59
2022-07-29T17:17:04.513Z,22.44
2022-07-29T17:19:40.511Z,22.49
2022-07-29T17:22:12.934Z,22.63
2022-07-29T17:24:45.458Z,22.71
2022-07-29T17:27:12.597Z,22.69
2022-07-29T17:29:39.414Z,22.74
2022-07-29T17:32:07.661Z,22.51
2022-07-29T17:34:36.453Z,22.38
2022-07-29T17:37:04.948Z,22.22
2022-07-29T17:39:31.695Z,22.16
2022-07-29T17:41:59.326Z,22.09
2022-07-29T17:44:25.998Z,21.92
2022-07-29T17:46:52.763Z,21.83
2022-07-29T17:49:19.778Z,21.84
2022-07-29T17:51:46.597Z,21.85
2022-07-29T17:54:13.388Z,21.81
2022-07-29T17:56:40.069Z,21.71
2022-07-29T17:59:09.069Z,21.45
2022-07-29T18:01:37.220Z,21.56
2022-07-29T18:04:04.252Z,21.41
2022-07-29T18:06:30.973Z,21.24
2022-07-29T18:08:57.697Z,21.16
2022-07-29T18:11:24.502Z,21.28
2022-07-29T18:13:51.260Z,21.29
2022-07-29T18:16:18.394Z,21.20
2022-07-29T18:18:45.929Z,21.11
2022-07-29T18:21:12.747Z,21.11
2022-07-29T18:23:39.452Z,21.14
2022-07-29T18:26:06.173Z,21.05
2022-07-29T18:28:33.251Z,21.05
2022-07-29T18:31:00.893Z,21.02
2022-07-29T18:33:27.895Z,20.86
2022-07-29T18:36:10.499Z,20.79
2022-07-29T18:38:39.926Z,20.80
2022-07-29T18:41:06.770Z,20.71
2022-07-29T18:43:36.235Z,20.68
2022-07-29T18:46:05.319Z,20.72
2022-07-29T18:48:33.429Z,20.63
2022-07-29T18:51:00.245Z,20.56
2022-07-29T18:53:26.974Z,20.65
2022-07-29T18:55:58.573Z,20.57
2022-07-29T18:58:26.882Z,20.49
2022-07-29T19:00:53.788Z,20.44
2022-07-29T19:03:20.462Z,20.33
2022-07-29T19:05:47.305Z,20.17
2022-07-29T19:08:14.453Z,20.29
2022-07-29T19:10:42.293Z,20.04
2022-07-29T19:13:09.016Z,20.07
2022-07-29T19:15:40.213Z,20.00
2022-07-29T19:18:07.200Z,19.98
2022-07-29T19:20:33.964Z,19.92
2022-07-29T19:23:00.690Z,20.03
2022-07-29T19:25:27.382Z,19.86
2022-07-29T19:27:54.249Z,19.95
2022-07-29T19:30:21.103Z,19.81
2022-07-29T19:32:48.080Z,19.82
2022-07-29T19:35:25.308Z,19.70
2022-07-29T19:37:52.610Z,19.73
2022-07-29T19:40:19.351Z,19.49
2022-07-29T19:42:48.153Z,19.67
2022-07-29T19:45:14.874Z,19.56
2022-07-29T19:47:41.467Z,19.47
2022-07-29T19:50:09.122Z,19.54
2022-07-29T19:52:36.518Z,19.57
2022-07-29T19:55:07.542Z,19.46
2022-07-29T19:57:40.697Z,19.38
2022-07-29T20:00:11.123Z,19.22
2022-07-29T20:02:40.219Z,19.23
2022-07-29T20:05:08.084Z,19.31
2022-07-29T20:07:35.281Z,19.32
2022-07-29T20:10:02.583Z,19.11
2022-07-29T20:12:29.591Z,19.20
2022-07-29T20:14:56.324Z,18.97
2022-07-29T20:17:24.543Z,18.89
2022-07-29T20:19:52.899Z,18.89
2022-07-29T20:22:21.036Z,18.78
2022-07-29T20:24:49.046Z,18.80
2022-07-29T20:27:15.778Z,18.59
2022-07-29T20:29:42.687Z,18.55
2022-07-29T20:32:09.520Z,18.57
2022-07-29T20:34:36.189Z,18.76
2022-07-29T20:37:03.086Z,18.59
2022-07-29T20:39:30.353Z,18.85
2022-07-29T20:41:57.019Z,18.86
2022-07-29T20:44:24.394Z,18.72
2022-07-29T20:46:51.216Z,18.82
2022-07-29T20:49:18.151Z,18.84
2022-07-29T20:51:45.049Z,18.51
2022-07-29T20:54:12.278Z,18.64
2022-07-29T20:56:39.433Z,18.59
2022-07-29T20:59:06.128Z,18.61
2022-07-29T21:01:32.922Z,18.57
2022-07-29T21:04:01.622Z,18.84
2022-07-29T21:06:28.643Z,18.95
2022-07-29T21:08:59.703Z,18.70
2022-07-29T21:11:44.747Z,19.13
2022-07-29T21:14:29.928Z,19.09
2022-07-29T21:16:57.054Z,19.06
2022-07-29T21:19:24.202Z,18.96
2022-07-29T21:21:51.274Z,18.99
2022-07-29T21:24:19.020Z,18.92
2022-07-29T21:26:50.726Z,18.79
2022-07-29T21:29:26.802Z,18.78
2022-07-29T21:31:53.478Z,18.89
2022-07-29T21:34:20.202Z,18.99
2022-07-29T21:36:48.801Z,18.72
2022-07-29T21:39:15.738Z,18.73
2022-07-29T21:41:42.389Z,18.61
2022-07-29T21:44:09.080Z,18.68
2022-07-29T21:46:36.642Z,18.77
2022-07-29T21:49:03.678Z,18.73
2022-07-29T21:51:30.416Z,18.64
2022-07-29T21:53:57.092Z,18.64
2022-07-29T21:56:24.565Z,18.88
2022-07-29T21:58:55.025Z,18.77
2022-07-29T22:01:21.775Z,18.77
2022-07-29T22:03:48.690Z,19.02
2022-07-29T22:06:18.407Z,18.96
2022-07-29T22:08:45.872Z,18.65
2022-07-29T22:11:13.064Z,18.75
2022-07-29T22:13:39.838Z,18.63
2022-07-29T22:16:06.838Z,18.62
2022-07-29T22:18:33.662Z,18.89
2022-07-29T22:21:00.348Z,18.56
2022-07-29T22:23:27.078Z,18.63
2022-07-29T22:25:53.852Z,18.75
2022-07-29T22:28:20.519Z,18.84
2022-07-29T22:30:47.483Z,18.97
2022-07-29T22:33:17.550Z,18.83
2022-07-29T22:35:45.558Z,19.02
2022-07-29T22:38:17.240Z,18.81
2022-07-29T22:40:48.712Z,18.89
2022-07-29T22:43:17.890Z,18.84
2022-07-29T22:45:44.755Z,18.83
2022-07-29T22:48:11.625Z,18.70
2022-07-29T22:50:38.973Z,18.76
2022-07-29T22:53:05.996Z,18.72
2022-07-29T22:55:32.709Z,18.70
2022-07-29T22:57:59.520Z,18.69
2022-07-29T23:00:26.195Z,18.53
2022-07-29T23:02:52.954Z,18.42
2022-07-29T23:05:19.752Z,18.46
2022-07-29T23:07:46.457Z,18.50
2022-07-29T23:10:13.349Z,18.40
2022-07-29T23:12:40.041Z,18.44
2022-07-29T23:15:07.138Z,18.49
2022-07-29T23:17:36.528Z,18.78
2022-07-29T23:20:06.636Z,18.59
2022-07-29T23:22:33.819Z,18.64
2022-07-29T23:25:00.599Z,18.63
2022-07-29T23:27:27.298Z,18.60
2022-07-29T23:29:54.003Z,18.70
2022-07-29T23:32:20.962Z,18.67
2022-07-29T23:34:47.776Z,18.66
2022-07-29T23:37:14.558Z,18.72
2022-07-29T23:39:41.277Z,18.52
2022-07-29T23:42:08.414Z,18.22
2022-07-29T23:44:35.111Z,18.20
2022-07-29T23:47:02.181Z,18.21
2022-07-29T23:49:29.124Z,18.15
2022-07-29T23:51:55.942Z,18.03
2022-07-29T23:54:22.808Z,17.97
2022-07-29T23:56:49.533Z,17.87
2022-07-29T23:59:16.324Z,17.87
